createdAt,value
2022-09-21T00:01:25.294Z,14.17
2022-09-21T00:04:02.659Z,14.18
2022-09-21T00:06:37.449Z,14.15
2022-09-21T00:09:11.823Z,14.15
2022-09-21T00:11:45.773Z,14.10
2022-09-21T00:14:20.148Z,14.05
2022-09-21T00:16:52.886Z,14.02
2022-09-21T00:19:25.770Z,14.01
2022-09-21T00:21:59.141Z,14.01
2022-09-21T00:24:31.915Z,14.01
2022-09-21T00:27:04.750Z,13.99
2022-09-21T00:29:37.926Z,13.92
2022-09-21T00:32:11.072Z,13.85
2022-09-21T00:34:44.183Z,13.79
2022-09-21T00:37:17.296Z,13.77
2022-09-21T00:39:50.359Z,13.75
2022-09-21T00:42:27.365Z,13.74
2022-09-21T00:45:01.078Z,13.73
2022-09-21T00:47:43.405Z,13.77
2022-09-21T00:50:20.622Z,13.79
2022-09-21T00:52:56.728Z,13.81
2022-09-21T00:55:42.076Z,13.83
2022-09-21T00:58:18.317Z,13.84
2022-09-21T01:00:51.117Z,13.89
2022-09-21T01:03:24.268Z,13.92
2022-09-21T01:05:58.033Z,13.96
2022-09-21T01:08:34.274Z,13.97
2022-09-21T01:11:29.817Z,14.02
2022-09-21T01:14:24.275Z,14.08
2022-09-21T01:17:32.339Z,14.11
2022-09-21T01:20:28.178Z,14.13
2022-09-21T01:23:29.377Z,14.16
2022-09-21T01:26:31.348Z,14.17
2022-09-21T01:29:28.886Z,14.17
2022-09-21T01:32:23.059Z,14.19
2022-09-21T01:35:30.018Z,14.17
2022-09-21T01:38:12.838Z,14.15
2022-09-21T01:40:55.633Z,14.15
2022-09-21T01:43:41.614Z,14.17
2022-09-21T01:46:18.651Z,14.18
2022-09-21T01:48:55.685Z,14.22
2022-09-21T01:51:30.018Z,14.23
2022-09-21T01:54:07.776Z,14.23
2022-09-21T01:56:47.923Z,14.18
2022-09-21T01:59:30.753Z,14.14
2022-09-21T02:02:14.299Z,14.11
2022-09-21T02:04:47.452Z,14.11
2022-09-21T02:07:21.380Z,14.14
2022-09-21T02:09:56.708Z,14.11
2022-09-21T02:12:31.690Z,14.11
2022-09-21T02:15:07.881Z,14.09
2022-09-21T02:17:51.661Z,14.02
2022-09-21T02:20:34.285Z,13.96
2022-09-21T02:23:26.863Z,13.90
2022-09-21T02:26:13.634Z,13.84
2022-09-21T02:29:07.908Z,13.80
2022-09-21T02:31:58.504Z,13.75
2022-09-21T02:34:45.726Z,13.72
2022-09-21T02:37:57.056Z,13.69
2022-09-21T02:40:43.132Z,13.60
2022-09-21T02:43:26.335Z,13.47
2022-09-21T02:46:19.226Z,13.41
2022-09-21T02:48:55.915Z,13.38
2022-09-21T02:51:35.546Z,13.33
2022-09-21T02:54:10.876Z,13.26
2022-09-21T02:56:45.303Z,13.21
2022-09-21T02:59:18.676Z,13.13
2022-09-21T03:01:52.939Z,13.07
2022-09-21T03:04:28.186Z,13.03
2022-09-21T03:07:00.866Z,12.99
2022-09-21T03:09:33.643Z,13.00
2022-09-21T03:12:07.368Z,13.02
2022-09-21T03:14:40.977Z,13.02
2022-09-21T03:17:13.889Z,13.00
2022-09-21T03:19:46.930Z,12.98
2022-09-21T03:22:21.604Z,12.96
2022-09-21T03:24:56.469Z,12.95
2022-09-21T03:27:29.887Z,12.93
2022-09-21T03:30:02.833Z,12.92
2022-09-21T03:32:35.836Z,12.91
2022-09-21T03:35:09.996Z,12.92
2022-09-21T03:37:42.428Z,12.95
2022-09-21T03:40:15.855Z,12.92
2022-09-21T03:42:48.855Z,12.88
2022-09-21T03:45:28.690Z,12.87
2022-09-21T03:48:03.150Z,12.85
2022-09-21T03:50:35.125Z,12.82
2022-09-21T03:53:08.513Z,12.81
2022-09-21T03:55:42.654Z,12.80
2022-09-21T03:58:15.304Z,12.74
2022-09-21T04:00:48.489Z,12.70
2022-09-21T04:03:21.326Z,12.69
2022-09-21T04:05:54.621Z,12.69
2022-09-21T04:08:27.837Z,12.70
2022-09-21T04:11:00.797Z,12.70
2022-09-21T04:13:35.609Z,12.71
2022-09-21T04:16:09.892Z,12.69
2022-09-21T04:18:43.346Z,12.69
2022-09-21T04:21:16.336Z,12.69
2022-09-21T04:23:50.202Z,12.68
2022-09-21T04:26:33.151Z,12.70
2022-09-21T04:29:06.979Z,12.74
2022-09-21T04:31:39.523Z,12.71
2022-09-21T04:34:14.645Z,12.63
2022-09-21T04:36:48.502Z,12.59
2022-09-21T04:39:21.743Z,12.61
2022-09-21T04:41:54.909Z,12.61
2022-09-21T04:44:28.286Z,12.60
2022-09-21T04:47:01.193Z,12.57
2022-09-21T04:49:34.401Z,12.57
2022-09-21T04:52:07.368Z,12.54
2022-09-21T04:54:40.474Z,12.51
2022-09-21T04:57:13.938Z,12.49
2022-09-21T04:59:46.889Z,12.47
2022-09-21T05:02:20.055Z,12.49
2022-09-21T05:04:52.988Z,12.53
2022-09-21T05:07:26.198Z,12.55
2022-09-21T05:10:05.461Z,12.56
2022-09-21T05:12:41.169Z,12.64
2022-09-21T05:15:13.666Z,12.68
2022-09-21T05:17:46.991Z,12.74
2022-09-21T05:20:19.891Z,12.85
2022-09-21T05:22:52.673Z,12.98
2022-09-21T05:25:25.448Z,13.02
2022-09-21T05:27:58.731Z,13.00
2022-09-21T05:30:33.001Z,12.95
2022-09-21T05:33:06.916Z,12.92
2022-09-21T05:35:53.306Z,12.92
2022-09-21T05:38:27.360Z,12.94
2022-09-21T05:41:01.621Z,12.97
2022-09-21T05:43:35.273Z,12.96
2022-09-21T05:46:35.174Z,12.94
2022-09-21T05:49:33.762Z,12.94
2022-09-21T05:52:26.269Z,12.97
2022-09-21T05:55:39.250Z,12.99
2022-09-21T05:58:34.938Z,12.99
2022-09-21T06:01:38.232Z,13.02
2022-09-21T06:04:15.102Z,13.03
2022-09-21T06:06:49.967Z,13.07
2022-09-21T06:09:22.943Z,13.13
2022-09-21T06:11:56.731Z,13.18
2022-09-21T06:14:29.994Z,13.25
2022-09-21T06:17:04.758Z,13.28
2022-09-21T06:19:37.818Z,13.31
2022-09-21T06:22:10.801Z,13.36
2022-09-21T06:24:44.475Z,13.42
2022-09-21T06:27:17.362Z,13.46
2022-09-21T06:29:50.814Z,13.50
2022-09-21T06:32:23.726Z,13.55
2022-09-21T06:34:57.241Z,13.57
2022-09-21T06:37:30.311Z,13.60
2022-09-21T06:40:03.958Z,13.63
2022-09-21T06:42:37.307Z,13.68
2022-09-21T06:45:11.239Z,13.75
2022-09-21T06:47:50.229Z,13.79
2022-09-21T06:50:23.443Z,13.83
2022-09-21T06:52:56.663Z,13.88
2022-09-21T06:55:30.099Z,13.90
2022-09-21T06:58:05.585Z,13.91
2022-09-21T07:00:38.920Z,13.93
2022-09-21T07:03:14.945Z,13.96
2022-09-21T07:05:48.531Z,13.98
2022-09-21T07:11:01.387Z,14.01
2022-09-21T07:13:35.843Z,14.08
2022-09-21T07:16:10.524Z,14.08
2022-09-21T07:18:44.459Z,14.10
2022-09-21T07:21:16.998Z,14.13
2022-09-21T07:23:50.389Z,14.15
2022-09-21T07:26:23.299Z,14.17
2022-09-21T07:28:58.203Z,14.21
2022-09-21T07:31:31.579Z,14.22
2022-09-21T07:34:04.786Z,14.24
2022-09-21T07:36:38.273Z,14.26
2022-09-21T07:39:14.087Z,14.29
2022-09-21T07:41:46.972Z,14.30
2022-09-21T07:44:21.716Z,14.32
2022-09-21T07:46:54.833Z,14.35
2022-09-21T07:49:28.257Z,14.39
2022-09-21T07:52:04.357Z,14.48
2022-09-21T07:54:37.230Z,14.57
2022-09-21T07:57:27.812Z,14.61
2022-09-21T08:00:01.168Z,14.69
2022-09-21T08:02:36.022Z,14.72
2022-09-21T08:05:09.813Z,14.76
2022-09-21T08:07:43.068Z,14.81
2022-09-21T08:10:16.618Z,14.84
2022-09-21T08:12:49.891Z,14.91
2022-09-21T08:15:47.084Z,14.99
2022-09-21T08:17:59.011Z,15.06
2022-09-21T08:20:31.880Z,15.11
2022-09-21T08:23:05.343Z,15.13
2022-09-21T08:25:38.710Z,15.15
2022-09-21T08:28:11.917Z,15.19
2022-09-21T08:30:45.207Z,15.25
2022-09-21T08:33:17.830Z,15.28
2022-09-21T08:35:58.503Z,15.32
2022-09-21T08:38:36.842Z,15.33
2022-09-21T08:41:22.660Z,15.37
2022-09-21T08:44:02.794Z,15.41
2022-09-21T08:46:36.697Z,15.44
2022-09-21T08:49:23.305Z,15.50
2022-09-21T08:52:00.924Z,15.59
2022-09-21T08:55:03.066Z,15.62
2022-09-21T08:57:36.837Z,15.65
2022-09-21T09:00:19.347Z,15.68
2022-09-21T09:03:40.042Z,15.68
2022-09-21T09:06:26.631Z,15.71
2022-09-21T09:09:11.260Z,15.74
2022-09-21T09:12:00.985Z,15.76
2022-09-21T09:14:57.288Z,15.79
2022-09-21T09:17:51.253Z,15.79
2022-09-21T09:20:34.466Z,15.81
2022-09-21T09:23:36.387Z,15.88
2022-09-21T09:26:16.269Z,15.93
2022-09-21T09:29:10.395Z,15.99
2022-09-21T09:31:44.439Z,15.98
2022-09-21T09:34:35.646Z,16.02
2022-09-21T09:37:17.565Z,16.06
2022-09-21T09:39:55.146Z,16.14
2022-09-21T09:43:04.421Z,16.19
2022-09-21T09:45:54.690Z,16.24
2022-09-21T09:48:43.937Z,16.32
2022-09-21T09:51:18.567Z,16.38
2022-09-21T09:53:51.323Z,16.39
2022-09-21T09:56:24.254Z,16.40
2022-09-21T09:59:00.519Z,16.44
2022-09-21T10:01:47.925Z,16.49
2022-09-21T10:04:20.911Z,16.52
2022-09-21T10:06:53.849Z,16.55
2022-09-21T10:09:35.840Z,16.57
2022-09-21T10:12:25.321Z,16.63
2022-09-21T10:15:01.667Z,16.65
2022-09-21T10:17:34.962Z,16.68
2022-09-21T10:20:12.695Z,16.71
2022-09-21T10:22:52.936Z,16.72
2022-09-21T10:25:25.850Z,16.71
2022-09-21T10:27:59.429Z,16.70
2022-09-21T10:30:39.024Z,16.72
2022-09-21T10:33:22.603Z,16.76
2022-09-21T10:35:57.232Z,16.78
2022-09-21T10:38:30.838Z,16.81
2022-09-21T10:41:04.234Z,16.82
2022-09-21T10:43:43.800Z,16.82
2022-09-21T10:46:16.822Z,16.86
2022-09-21T10:48:49.801Z,16.90
2022-09-21T10:51:29.778Z,16.93
2022-09-21T10:54:02.669Z,16.98
2022-09-21T10:56:35.435Z,17.07
2022-09-21T10:59:27.941Z,17.11
2022-09-21T11:02:02.533Z,17.12
2022-09-21T11:04:51.530Z,17.19
2022-09-21T11:07:48.542Z,17.18
2022-09-21T11:10:50.253Z,17.13
2022-09-21T11:13:54.549Z,17.18
2022-09-21T11:16:54.585Z,17.24
2022-09-21T11:19:51.608Z,17.28
2022-09-21T11:22:57.662Z,17.30
2022-09-21T11:25:47.336Z,17.33
2022-09-21T11:28:36.145Z,17.35
2022-09-21T11:31:40.041Z,17.38
2022-09-21T11:34:31.546Z,17.38
2022-09-21T11:37:31.688Z,17.41
2022-09-21T11:40:15.616Z,17.44
2022-09-21T11:43:11.612Z,17.48
2022-09-21T11:46:12.892Z,17.50
2022-09-21T11:49:15.458Z,17.52
2022-09-21T11:52:04.733Z,17.54
2022-09-21T11:55:06.572Z,17.61
2022-09-21T11:58:10.893Z,17.67
2022-09-21T12:00:58.620Z,17.67
2022-09-21T12:03:48.086Z,17.68
2022-09-21T12:07:03.150Z,17.68
2022-09-21T12:10:15.498Z,17.72
2022-09-21T12:13:03.117Z,17.76
2022-09-21T12:15:52.328Z,17.79
2022-09-21T12:19:06.350Z,17.79
2022-09-21T12:21:51.059Z,17.80
2022-09-21T12:24:34.572Z,17.82
2022-09-21T12:27:29.624Z,17.81
2022-09-21T12:30:10.129Z,17.84
2022-09-21T12:32:52.647Z,17.87
2022-09-21T12:35:34.558Z,17.90
2022-09-21T12:38:21.199Z,17.94
2022-09-21T12:41:14.930Z,17.97
2022-09-21T12:44:22.818Z,17.96
2022-09-21T12:47:02.251Z,17.95
2022-09-21T12:49:37.936Z,17.94
2022-09-21T12:52:11.827Z,17.94
2022-09-21T12:55:16.102Z,17.93
2022-09-21T12:58:20.203Z,17.92
2022-09-21T13:01:21.948Z,17.92
2022-09-21T13:03:59.722Z,17.92
2022-09-21T13:07:16.372Z,17.90
2022-09-21T13:09:49.434Z,17.89
2022-09-21T13:12:26.293Z,17.91
2022-09-21T13:15:24.511Z,17.96
2022-09-21T13:18:06.760Z,18.00
2022-09-21T13:20:42.476Z,18.03
2022-09-21T13:23:42.595Z,18.01
2022-09-21T13:26:19.598Z,18.02
2022-09-21T13:29:03.446Z,18.01
2022-09-21T13:31:56.857Z,17.97
2022-09-21T13:34:41.564Z,17.97
2022-09-21T13:37:23.732Z,17.93
2022-09-21T13:40:12.983Z,17.89
2022-09-21T13:42:49.956Z,17.87
2022-09-21T13:45:27.770Z,17.83
2022-09-21T13:48:01.134Z,17.81
2022-09-21T13:50:47.411Z,17.79
2022-09-21T13:53:26.705Z,17.79
2022-09-21T13:56:18.319Z,17.77
2022-09-21T13:58:53.995Z,17.73
2022-09-21T14:01:46.710Z,17.72
2022-09-21T14:04:29.753Z,17.71
2022-09-21T14:07:08.371Z,17.67
2022-09-21T14:09:45.590Z,17.64
2022-09-21T14:12:21.569Z,17.61
2022-09-21T14:15:21.590Z,17.57
2022-09-21T14:18:17.420Z,17.57
2022-09-21T14:21:19.970Z,17.53
2022-09-21T14:24:23.233Z,17.50
2022-09-21T14:27:42.250Z,17.46
2022-09-21T14:30:24.787Z,17.40
2022-09-21T14:33:30.773Z,17.33
2022-09-21T14:36:10.181Z,17.30
2022-09-21T14:38:53.002Z,17.24
2022-09-21T14:41:30.023Z,17.20
2022-09-21T14:44:03.241Z,17.16
2022-09-21T14:47:01.118Z,17.12
2022-09-21T14:50:18.344Z,17.07
2022-09-21T14:53:34.210Z,16.98
2022-09-21T14:56:24.131Z,16.91
2022-09-21T14:59:36.038Z,16.83
2022-09-21T15:02:24.246Z,16.76
2022-09-21T15:05:18.106Z,16.70
2022-09-21T15:08:52.820Z,16.63
2022-09-21T15:11:30.122Z,16.57
2022-09-21T15:14:35.531Z,16.45
2022-09-21T15:17:26.417Z,16.39
2022-09-21T15:20:04.683Z,16.31
2022-09-21T15:22:42.924Z,16.21
2022-09-21T15:25:16.624Z,16.14
2022-09-21T15:27:49.510Z,16.07
2022-09-21T15:30:29.530Z,16.00
2022-09-21T15:33:03.964Z,15.92
2022-09-21T15:35:37.443Z,15.85
2022-09-21T15:38:32.496Z,15.77
2022-09-21T15:41:11.506Z,15.72
2022-09-21T15:43:43.734Z,15.63
2022-09-21T15:46:18.802Z,15.56
2022-09-21T15:48:52.563Z,15.49
2022-09-21T15:51:37.256Z,15.44
2022-09-21T15:54:41.258Z,15.39
2022-09-21T15:57:39.376Z,15.33
2022-09-21T16:00:22.532Z,15.25
2022-09-21T16:03:06.452Z,15.19
2022-09-21T16:05:52.498Z,15.13
2022-09-21T16:08:37.868Z,15.08
2022-09-21T16:11:35.643Z,15.00
2022-09-21T16:14:35.192Z,14.93
2022-09-21T16:17:20.395Z,14.88
2022-09-21T16:19:55.651Z,14.81
2022-09-21T16:22:49.868Z,14.77
2022-09-21T16:25:33.938Z,14.71
2022-09-21T16:28:17.963Z,14.68
2022-09-21T16:30:57.630Z,14.65
2022-09-21T16:33:49.790Z,14.61
2022-09-21T16:36:31.891Z,14.58
2022-09-21T16:39:08.613Z,14.54
2022-09-21T16:41:48.574Z,14.51
2022-09-21T16:44:25.864Z,14.47
2022-09-21T16:47:02.571Z,14.44
2022-09-21T16:49:36.341Z,14.42
2022-09-21T16:52:09.457Z,14.39
2022-09-21T16:54:42.270Z,14.36
2022-09-21T16:57:15.302Z,14.31
2022-09-21T16:59:49.901Z,14.28
2022-09-21T17:02:23.789Z,14.24
2022-09-21T17:04:59.025Z,14.19
2022-09-21T17:07:32.396Z,14.15
2022-09-21T17:10:16.698Z,14.10
2022-09-21T17:12:51.178Z,14.06
2022-09-21T17:15:25.701Z,14.01
2022-09-21T17:17:59.262Z,13.96
2022-09-21T17:20:38.670Z,13.91
2022-09-21T17:23:12.445Z,13.83
2022-09-21T17:25:45.889Z,13.74
2022-09-21T17:28:24.387Z,13.67
2022-09-21T17:30:58.691Z,13.57
2022-09-21T17:33:31.808Z,13.51
2022-09-21T17:36:06.637Z,13.49
2022-09-21T17:38:39.907Z,13.47
2022-09-21T17:41:26.055Z,13.44
2022-09-21T17:44:15.629Z,13.41
2022-09-21T17:47:01.741Z,13.38
2022-09-21T17:49:35.377Z,13.34
2022-09-21T17:52:38.853Z,13.33
2022-09-21T17:55:14.323Z,13.32
2022-09-21T17:57:56.486Z,13.28
2022-09-21T18:01:10.014Z,13.21
2022-09-21T18:03:44.931Z,13.16
2022-09-21T18:06:18.626Z,13.09
2022-09-21T18:08:52.314Z,13.02
2022-09-21T18:12:12.653Z,12.96
2022-09-21T18:14:51.840Z,12.85
2022-09-21T18:18:01.516Z,12.80
2022-09-21T18:21:08.857Z,12.72
2022-09-21T18:24:16.292Z,12.64
2022-09-21T18:26:52.527Z,12.57
2022-09-21T18:29:41.096Z,12.49
2022-09-21T18:32:31.793Z,12.44
2022-09-21T18:35:25.815Z,12.42
2022-09-21T18:38:19.983Z,12.40
2022-09-21T18:41:30.131Z,12.36
2022-09-21T18:44:14.222Z,12.28
2022-09-21T18:47:00.886Z,12.22
2022-09-21T18:50:04.209Z,12.17
2022-09-21T18:53:12.468Z,12.13
2022-09-21T18:55:47.530Z,12.05
2022-09-21T18:58:21.088Z,11.99
2022-09-21T19:00:54.762Z,11.94
2022-09-21T19:03:28.661Z,11.88
2022-09-21T19:06:13.361Z,11.86
2022-09-21T19:09:08.826Z,11.88
2022-09-21T19:12:22.848Z,11.90
2022-09-21T19:15:59.084Z,11.93
2022-09-21T19:18:40.080Z,11.97
2022-09-21T19:21:27.590Z,12.00
2022-09-21T19:24:39.408Z,11.97
2022-09-21T19:27:28.527Z,11.90
2022-09-21T19:30:14.171Z,11.83
2022-09-21T19:33:00.319Z,11.76
2022-09-21T19:35:35.037Z,11.72
2022-09-21T19:38:09.450Z,11.68
2022-09-21T19:40:43.609Z,11.65
2022-09-21T19:43:36.898Z,11.64
2022-09-21T19:46:26.629Z,11.65
2022-09-21T19:49:04.107Z,11.65
2022-09-21T19:51:53.307Z,11.64
2022-09-21T19:54:45.215Z,11.59
2022-09-21T19:57:39.443Z,11.58
2022-09-21T20:00:19.313Z,11.62
2022-09-21T20:03:09.281Z,11.67
2022-09-21T20:05:52.536Z,11.67
2022-09-21T20:09:02.068Z,11.63
2022-09-21T20:11:40.101Z,11.59
2022-09-21T20:14:46.483Z,11.49
2022-09-21T20:17:27.381Z,11.40
2022-09-21T20:20:11.247Z,11.30
2022-09-21T20:22:45.071Z,11.27
2022-09-21T20:25:41.964Z,11.22
2022-09-21T20:28:15.754Z,11.16
2022-09-21T20:30:48.691Z,11.09
2022-09-21T20:33:22.921Z,11.04
2022-09-21T20:35:56.286Z,10.98
2022-09-21T20:38:29.936Z,10.94
2022-09-21T20:41:04.663Z,10.91
2022-09-21T20:43:37.551Z,10.88
2022-09-21T20:46:14.181Z,10.84
2022-09-21T20:48:47.391Z,10.81
2022-09-21T20:51:20.130Z,10.79
2022-09-21T20:53:53.316Z,10.78
2022-09-21T20:56:26.284Z,10.76
2022-09-21T20:58:59.607Z,10.72
2022-09-21T21:01:32.341Z,10.70
2022-09-21T21:04:05.313Z,10.64
2022-09-21T21:06:38.480Z,10.61
2022-09-21T21:09:11.829Z,10.57
2022-09-21T21:11:44.815Z,10.55
2022-09-21T21:14:17.566Z,10.55
2022-09-21T21:16:50.868Z,10.57
2022-09-21T21:19:23.887Z,10.59
2022-09-21T21:21:56.771Z,10.58
2022-09-21T21:24:41.993Z,10.53
2022-09-21T21:27:21.677Z,10.48
2022-09-21T21:29:56.516Z,10.42
2022-09-21T21:32:31.905Z,10.35
2022-09-21T21:35:04.913Z,10.34
2022-09-21T21:37:40.149Z,10.31
2022-09-21T21:40:13.378Z,10.28
2022-09-21T21:42:46.077Z,10.23
2022-09-21T21:45:20.967Z,10.20
2022-09-21T21:47:55.537Z,10.18
2022-09-21T21:50:28.918Z,10.17
2022-09-21T21:53:01.904Z,10.14
2022-09-21T21:55:34.853Z,10.12
2022-09-21T21:58:08.073Z,10.13
2022-09-21T22:00:41.074Z,10.16
2022-09-21T22:03:13.892Z,10.16
2022-09-21T22:05:47.381Z,10.11
2022-09-21T22:08:21.103Z,10.06
2022-09-21T22:10:54.486Z,10.01
2022-09-21T22:13:34.813Z,9.98
2022-09-21T22:16:13.645Z,9.96
2022-09-21T22:18:47.479Z,9.94
2022-09-21T22:21:26.364Z,9.96
2022-09-21T22:24:03.226Z,9.98
2022-09-21T22:26:40.051Z,9.98
2022-09-21T22:29:15.340Z,10.01
2022-09-21T22:31:51.133Z,10.03
2022-09-21T22:34:24.097Z,10.02
2022-09-21T22:36:57.245Z,9.94
2022-09-21T22:39:31.306Z,9.87
2022-09-21T22:42:04.576Z,9.84
2022-09-21T22:44:37.463Z,9.80
2022-09-21T22:47:10.481Z,9.77
2022-09-21T22:49:44.481Z,9.74
2022-09-21T22:52:17.511Z,9.74
2022-09-21T22:54:50.260Z,9.75
2022-09-21T22:57:23.325Z,9.73
2022-09-21T22:59:56.214Z,9.69
2022-09-21T23:02:29.014Z,9.64
2022-09-21T23:05:02.237Z,9.61
2022-09-21T23:07:37.387Z,9.57
2022-09-21T23:10:10.954Z,9.54
2022-09-21T23:12:43.902Z,9.53
2022-09-21T23:15:17.119Z,9.53
2022-09-21T23:17:50.676Z,9.53
2022-09-21T23:20:23.643Z,9.53
2022-09-21T23:22:56.739Z,9.55
2022-09-21T23:25:29.813Z,9.53
2022-09-21T23:28:03.665Z,9.55
2022-09-21T23:30:36.933Z,9.58
2022-09-21T23:33:10.503Z,9.56
2022-09-21T23:35:44.460Z,9.53
2022-09-21T23:38:17.707Z,9.49
2022-09-21T23:40:51.190Z,9.44
2022-09-21T23:43:24.358Z,9.40
2022-09-21T23:45:57.746Z,9.40
2022-09-21T23:48:31.318Z,9.36
2022-09-21T23:51:04.991Z,9.32
2022-09-21T23:53:39.088Z,9.27
2022-09-21T23:56:16.431Z,9.21
2022-09-21T23:58:50.052Z,9.17
